createdAt,value
2022-11-20T00:01:27.568Z,97682.19
2022-11-20T00:03:56.497Z,97686.53
2022-11-20T00:06:24.837Z,97681.41
2022-11-20T00:08:52.229Z,97688.34
2022-11-20T00:11:24.954Z,97688.59
2022-11-20T00:13:55.292Z,97678.50
2022-11-20T00:16:25.905Z,97676.41
2022-11-20T00:18:53.385Z,97685.22
2022-11-20T00:21:27.155Z,97691.38
2022-11-20T00:23:56.577Z,97683.00
2022-11-20T00:26:26.510Z,97680.78
2022-11-20T00:28:56.879Z,97681.50
2022-11-20T00:31:24.563Z,97682.22
2022-11-20T00:33:52.069Z,97679.75
2022-11-20T00:36:27.799Z,97671.75
2022-11-20T00:38:57.535Z,97678.63
2022-11-20T00:41:25.834Z,97676.28
2022-11-20T00:43:54.349Z,97673.41
2022-11-20T00:46:24.632Z,97679.72
2022-11-20T00:48:52.064Z,97673.81
2022-11-20T00:51:22.176Z,97680.19
2022-11-20T00:53:49.510Z,97694.31
2022-11-20T00:56:19.279Z,97695.69
2022-11-20T00:58:48.555Z,97689.47
2022-11-20T01:01:27.868Z,97691.72
2022-11-20T01:03:58.414Z,97703.97
2022-11-20T01:06:32.630Z,97687.78
2022-11-20T01:09:04.826Z,97703.56
2022-11-20T01:11:34.145Z,97701.00
2022-11-20T01:14:04.139Z,97691.97
2022-11-20T01:16:37.549Z,97694.28
2022-11-20T01:19:10.601Z,97698.00
2022-11-20T01:21:40.649Z,97699.38
2022-11-20T01:24:11.587Z,97708.19
2022-11-20T01:26:41.412Z,97696.72
2022-11-20T01:29:24.327Z,97703.66
2022-11-20T01:31:52.713Z,97705.94
2022-11-20T01:34:23.103Z,97701.59
2022-11-20T01:36:51.806Z,97712.69
2022-11-20T01:39:23.156Z,97706.00
2022-11-20T01:42:12.063Z,97707.59
2022-11-20T01:44:57.810Z,97704.94
2022-11-20T01:47:27.035Z,97703.38
2022-11-20T01:50:20.350Z,97691.38
2022-11-20T01:52:59.090Z,97688.34
2022-11-20T01:55:32.002Z,97693.78
2022-11-20T01:57:59.894Z,97692.34
2022-11-20T02:00:26.805Z,97695.00
2022-11-20T02:03:00.048Z,97685.47
2022-11-20T02:05:35.151Z,97691.28
2022-11-20T02:08:05.603Z,97688.00
2022-11-20T02:10:32.937Z,97691.97
2022-11-20T02:13:19.034Z,97694.31
2022-11-20T02:15:46.773Z,97690.03
2022-11-20T02:18:17.376Z,97678.63
2022-11-20T02:20:46.840Z,97689.16
2022-11-20T02:23:28.233Z,97690.84
2022-11-20T02:25:56.816Z,97696.34
2022-11-20T02:28:24.299Z,97692.03
2022-11-20T02:30:51.180Z,97697.53
2022-11-20T02:33:18.038Z,97691.97
2022-11-20T02:35:47.712Z,97689.75
2022-11-20T02:38:15.470Z,97683.19
2022-11-20T02:40:42.818Z,97692.50
2022-11-20T02:43:10.378Z,97694.50
2022-11-20T02:45:37.889Z,97691.38
2022-11-20T02:48:06.286Z,97693.66
2022-11-20T02:50:33.171Z,97694.03
2022-11-20T02:53:00.014Z,97691.81
2022-11-20T02:55:26.970Z,97690.16
2022-11-20T02:57:53.866Z,97694.97
2022-11-20T03:00:20.887Z,97697.56
2022-11-20T03:02:47.786Z,97698.31
2022-11-20T03:05:16.998Z,97700.03
2022-11-20T03:07:45.165Z,97695.81
2022-11-20T03:10:12.326Z,97692.22
2022-11-20T03:12:39.235Z,97694.72
2022-11-20T03:15:06.724Z,97696.72
2022-11-20T03:17:33.621Z,97694.91
2022-11-20T03:20:00.618Z,97692.69
2022-11-20T03:22:30.946Z,97684.59
2022-11-20T03:24:57.999Z,97680.75
2022-11-20T03:27:24.987Z,97678.91
2022-11-20T03:29:51.892Z,97682.16
2022-11-20T03:32:18.774Z,97679.34
2022-11-20T03:34:45.688Z,97687.41
2022-11-20T03:37:12.553Z,97691.16
2022-11-20T03:39:39.419Z,97685.16
2022-11-20T03:42:26.262Z,97680.00
2022-11-20T03:44:53.125Z,97670.06
2022-11-20T03:47:20.051Z,97678.59
2022-11-20T03:49:46.915Z,97679.59
2022-11-20T03:52:13.790Z,97678.50
2022-11-20T03:54:40.682Z,97679.41
2022-11-20T03:57:07.575Z,97672.84
2022-11-20T03:59:34.478Z,97673.81
2022-11-20T04:02:01.407Z,97675.53
2022-11-20T04:04:28.294Z,97671.16
2022-11-20T04:06:55.166Z,97677.16
2022-11-20T04:09:22.650Z,97679.66
2022-11-20T04:11:49.784Z,97684.31
2022-11-20T04:14:17.455Z,97681.81
2022-11-20T04:16:44.777Z,97684.66
2022-11-20T04:19:16.995Z,97670.72
2022-11-20T04:21:44.940Z,97666.94
2022-11-20T04:24:12.054Z,97669.00
2022-11-20T04:26:39.526Z,97663.38
2022-11-20T04:29:06.602Z,97674.47
2022-11-20T04:31:35.985Z,97670.84
2022-11-20T04:34:05.754Z,97673.00
2022-11-20T04:36:34.088Z,97673.19
2022-11-20T04:39:04.844Z,97676.41
2022-11-20T04:41:35.647Z,97670.78
2022-11-20T04:44:04.961Z,97669.69
2022-11-20T04:46:41.243Z,97670.91
2022-11-20T04:49:08.713Z,97677.09
2022-11-20T04:51:36.110Z,97674.41
2022-11-20T04:54:03.160Z,97676.59
2022-11-20T04:56:30.075Z,97663.97
2022-11-20T04:59:01.163Z,97669.19
2022-11-20T05:01:28.087Z,97675.09
2022-11-20T05:03:55.142Z,97669.81
2022-11-20T05:06:22.952Z,97668.44
2022-11-20T05:08:50.296Z,97666.22
2022-11-20T05:11:20.751Z,97670.50
2022-11-20T05:13:48.323Z,97668.78
2022-11-20T05:16:19.468Z,97665.63
2022-11-20T05:18:46.846Z,97663.41
2022-11-20T05:21:14.460Z,97663.53
2022-11-20T05:23:42.538Z,97666.72
2022-11-20T05:26:15.465Z,97666.88
2022-11-20T05:28:42.382Z,97667.44
2022-11-20T05:31:15.474Z,97670.81
2022-11-20T05:33:44.359Z,97669.66
2022-11-20T05:36:13.899Z,97671.66
2022-11-20T05:38:41.354Z,97664.41
2022-11-20T05:41:20.301Z,97656.72
2022-11-20T05:43:49.112Z,97662.13
2022-11-20T05:46:24.993Z,97664.31
2022-11-20T05:48:53.531Z,97666.41
2022-11-20T05:51:20.541Z,97671.84
2022-11-20T05:53:48.673Z,97667.06
2022-11-20T05:56:21.944Z,97662.94
2022-11-20T05:58:49.636Z,97664.28
2022-11-20T06:01:24.432Z,97662.47
2022-11-20T06:03:52.209Z,97660.38
2022-11-20T06:06:20.356Z,97659.19
2022-11-20T06:08:47.460Z,97661.75
2022-11-20T06:11:15.729Z,97658.59
2022-11-20T06:13:43.036Z,97658.59
2022-11-20T06:16:12.179Z,97662.25
2022-11-20T06:18:39.710Z,97652.16
2022-11-20T06:21:10.107Z,97653.31
2022-11-20T06:23:38.339Z,97653.34
2022-11-20T06:26:08.629Z,97655.75
2022-11-20T06:28:36.175Z,97656.44
2022-11-20T06:31:03.633Z,97648.97
2022-11-20T06:33:30.906Z,97649.19
2022-11-20T06:36:03.421Z,97659.38
2022-11-20T06:38:32.950Z,97657.59
2022-11-20T06:40:59.937Z,97653.25
2022-11-20T06:43:27.018Z,97654.00
2022-11-20T06:45:54.946Z,97657.44
2022-11-20T06:48:23.440Z,97654.38
2022-11-20T06:50:50.678Z,97654.84
2022-11-20T06:53:17.664Z,97663.72
2022-11-20T06:55:46.445Z,97665.59
2022-11-20T06:58:15.046Z,97664.44
2022-11-20T07:00:42.725Z,97657.03
2022-11-20T07:03:12.820Z,97660.63
2022-11-20T07:05:40.887Z,97658.34
2022-11-20T07:08:08.897Z,97663.97
2022-11-20T07:10:36.309Z,97657.19
2022-11-20T07:13:03.359Z,97675.00
2022-11-20T07:15:30.820Z,97662.09
2022-11-20T07:18:01.126Z,97662.94
2022-11-20T07:20:28.638Z,97671.63
2022-11-20T07:22:56.991Z,97673.19
2022-11-20T07:25:27.545Z,97674.13
2022-11-20T07:27:59.368Z,97680.28
2022-11-20T07:30:27.657Z,97681.47
2022-11-20T07:32:56.341Z,97679.13
2022-11-20T07:35:24.826Z,97680.94
2022-11-20T07:37:52.294Z,97676.81
2022-11-20T07:40:20.616Z,97684.78
2022-11-20T07:42:55.155Z,97683.22
2022-11-20T07:45:24.294Z,97683.56
2022-11-20T07:47:51.985Z,97683.50
2022-11-20T07:50:20.136Z,97683.13
2022-11-20T07:52:47.631Z,97680.25
2022-11-20T07:55:14.900Z,97696.81
2022-11-20T07:57:41.872Z,97692.94
2022-11-20T08:00:11.739Z,97698.34
2022-11-20T08:02:42.196Z,97691.22
2022-11-20T08:05:12.206Z,97690.34
2022-11-20T08:07:40.857Z,97695.56
2022-11-20T08:10:10.439Z,97697.78
2022-11-20T08:12:56.204Z,97698.63
2022-11-20T08:15:23.206Z,97769.75
2022-11-20T08:18:15.506Z,97686.34
2022-11-20T08:20:36.995Z,97696.00
2022-11-20T08:23:06.730Z,97695.34
2022-11-20T08:25:36.225Z,97695.56
2022-11-20T08:28:19.864Z,97693.94
2022-11-20T08:30:47.628Z,97701.38
2022-11-20T08:33:15.003Z,97700.13
2022-11-20T08:35:42.652Z,97691.09
2022-11-20T08:38:10.543Z,97703.63
2022-11-20T08:40:37.583Z,97701.75
2022-11-20T08:43:07.671Z,97704.25
2022-11-20T08:45:35.410Z,97699.31
2022-11-20T08:48:04.295Z,97700.25
2022-11-20T08:50:32.993Z,97708.00
2022-11-20T08:53:07.485Z,97700.63
2022-11-20T08:55:37.806Z,97712.63
2022-11-20T08:58:05.963Z,97705.22
2022-11-20T09:00:36.226Z,97711.22
2022-11-20T09:03:03.192Z,97705.47
2022-11-20T09:05:30.678Z,97715.88
2022-11-20T09:07:58.990Z,97709.16
2022-11-20T09:10:26.974Z,97705.16
2022-11-20T09:12:55.979Z,97706.13
2022-11-20T09:15:24.024Z,97712.38
2022-11-20T09:18:02.448Z,97707.09
2022-11-20T09:20:31.085Z,97711.06
2022-11-20T09:22:58.688Z,97715.19
2022-11-20T09:25:26.219Z,97723.50
2022-11-20T09:27:58.120Z,97723.34
2022-11-20T09:30:25.317Z,97723.97
2022-11-20T09:32:53.575Z,97719.50
2022-11-20T09:35:20.891Z,97707.91
2022-11-20T09:37:47.833Z,97708.38
2022-11-20T09:40:30.450Z,97702.59
2022-11-20T09:43:34.921Z,97714.56
2022-11-20T09:46:34.752Z,97716.44
2022-11-20T09:49:10.715Z,97725.19
2022-11-20T09:52:21.913Z,97721.25
2022-11-20T09:54:49.565Z,97736.59
2022-11-20T09:57:23.058Z,97729.81
2022-11-20T10:00:03.997Z,97724.88
2022-11-20T10:02:46.297Z,97740.94
2022-11-20T10:05:22.362Z,97733.72
2022-11-20T10:08:17.379Z,97724.97
2022-11-20T10:11:02.424Z,97719.13
2022-11-20T10:14:26.116Z,97739.03
2022-11-20T10:17:11.174Z,97730.38
2022-11-20T10:20:15.781Z,97724.19
2022-11-20T10:23:06.694Z,97725.84
2022-11-20T10:25:45.582Z,97726.41
2022-11-20T10:28:58.753Z,97733.00
2022-11-20T10:31:38.793Z,97727.34
2022-11-20T10:34:24.854Z,97731.50
2022-11-20T10:37:23.906Z,97740.31
2022-11-20T10:40:18.948Z,97741.13
2022-11-20T10:43:12.329Z,97740.06
2022-11-20T10:45:48.457Z,97750.50
2022-11-20T10:48:34.224Z,97743.06
2022-11-20T10:51:46.173Z,97748.56
2022-11-20T10:54:34.918Z,97750.59
2022-11-20T10:57:41.884Z,97738.75
2022-11-20T11:00:13.245Z,97735.66
2022-11-20T11:03:14.333Z,97721.91
2022-11-20T11:05:55.222Z,97730.47
2022-11-20T11:08:23.019Z,97731.81
2022-11-20T11:11:06.751Z,97722.91
2022-11-20T11:14:15.157Z,97719.75
2022-11-20T11:16:59.093Z,97726.56
2022-11-20T11:19:26.348Z,97720.06
2022-11-20T11:21:57.406Z,97716.34
2022-11-20T11:24:45.993Z,97714.78
2022-11-20T11:27:18.449Z,97707.03
2022-11-20T11:29:46.851Z,97715.22
2022-11-20T11:32:21.601Z,97694.63
2022-11-20T11:35:07.445Z,97695.84
2022-11-20T11:37:37.590Z,97710.78
2022-11-20T11:43:00.804Z,97702.22
2022-11-20T11:45:28.154Z,97683.63
2022-11-20T11:47:58.862Z,97692.28
2022-11-20T11:50:28.510Z,97675.56
2022-11-20T11:53:14.102Z,97685.88
2022-11-20T11:55:55.499Z,97674.31
2022-11-20T11:58:54.853Z,97669.00
2022-11-20T12:01:30.452Z,97662.56
2022-11-20T12:04:45.042Z,97656.50
2022-11-20T12:07:49.682Z,97658.16
2022-11-20T12:10:46.389Z,97651.09
2022-11-20T12:13:54.324Z,97659.81
2022-11-20T12:16:22.028Z,97658.41
2022-11-20T12:18:53.823Z,97654.44
2022-11-20T12:21:40.188Z,97654.44
2022-11-20T12:24:34.276Z,97666.81
2022-11-20T12:27:31.240Z,97660.47
2022-11-20T12:30:13.599Z,97654.94
2022-11-20T12:32:58.669Z,97655.78
2022-11-20T12:35:57.582Z,97644.00
2022-11-20T12:38:47.981Z,97635.47
2022-11-20T12:42:14.954Z,97631.19
2022-11-20T12:45:15.953Z,97638.53
2022-11-20T12:47:57.250Z,97637.66
2022-11-20T12:51:20.063Z,97632.38
2022-11-20T12:54:23.555Z,97638.69
2022-11-20T12:57:12.574Z,97643.59
2022-11-20T13:00:19.630Z,97655.69
2022-11-20T13:03:33.476Z,97649.16
2022-11-20T13:06:18.576Z,97639.53
2022-11-20T13:08:59.703Z,97630.66
2022-11-20T13:11:38.558Z,97631.88
2022-11-20T13:14:29.690Z,97635.88
2022-11-20T13:17:22.691Z,97631.63
2022-11-20T13:19:59.606Z,97634.84
2022-11-20T13:22:46.847Z,97632.94
2022-11-20T13:25:35.498Z,97640.41
2022-11-20T13:28:22.684Z,97629.19
2022-11-20T13:30:55.109Z,97643.63
2022-11-20T13:33:39.288Z,97641.31
2022-11-20T13:36:27.005Z,97641.59
2022-11-20T13:38:56.317Z,97640.84
2022-11-20T13:41:36.181Z,97628.81
2022-11-20T13:44:28.335Z,97641.16
2022-11-20T13:46:55.278Z,97644.03
2022-11-20T13:49:31.881Z,97615.88
2022-11-20T13:52:40.421Z,97611.78
2022-11-20T13:56:00.945Z,97609.09
2022-11-20T13:59:05.353Z,97610.06
2022-11-20T14:01:33.309Z,97603.56
2022-11-20T14:04:07.615Z,97599.56
2022-11-20T14:06:43.436Z,97598.03
2022-11-20T14:09:26.581Z,97593.72
2022-11-20T14:11:53.906Z,97602.88
2022-11-20T14:14:30.191Z,97607.44
2022-11-20T14:17:08.610Z,97592.84
2022-11-20T14:19:38.231Z,97611.09
2022-11-20T14:22:10.586Z,97612.13
2022-11-20T14:24:38.445Z,97609.03
2022-11-20T14:27:05.486Z,97614.22
2022-11-20T14:29:38.479Z,97612.16
2022-11-20T14:32:06.245Z,97610.25
2022-11-20T14:34:39.641Z,97602.94
2022-11-20T14:37:16.524Z,97615.06
2022-11-20T14:39:55.258Z,97610.41
2022-11-20T14:42:26.523Z,97599.78
2022-11-20T14:44:57.809Z,97607.00
2022-11-20T14:47:31.719Z,97597.22
2022-11-20T14:50:02.611Z,97610.16
2022-11-20T14:52:31.990Z,97605.78
2022-11-20T14:55:02.671Z,97598.25
2022-11-20T14:57:35.659Z,97597.94
2022-11-20T15:00:30.456Z,97588.06
2022-11-20T15:02:58.448Z,97588.88
2022-11-20T15:05:45.881Z,97583.63
2022-11-20T15:08:14.493Z,97566.06
2022-11-20T15:10:49.402Z,97566.72
2022-11-20T15:13:23.459Z,97562.63
2022-11-20T15:15:53.608Z,97568.31
2022-11-20T15:18:33.851Z,97564.50
2022-11-20T15:21:10.155Z,97557.31
2022-11-20T15:23:37.114Z,97565.78
2022-11-20T15:26:06.977Z,97563.09
2022-11-20T15:28:48.726Z,97556.47
2022-11-20T15:31:19.791Z,97566.34
2022-11-20T15:33:46.928Z,97559.69
2022-11-20T15:36:13.996Z,97560.19
2022-11-20T15:38:41.311Z,97554.31
2022-11-20T15:41:08.868Z,97563.22
2022-11-20T15:43:36.103Z,97557.53
2022-11-20T15:46:18.440Z,97553.50
2022-11-20T15:48:55.589Z,97545.59
2022-11-20T15:51:26.346Z,97552.16
2022-11-20T15:53:53.743Z,97541.41
2022-11-20T15:56:21.121Z,97537.41
2022-11-20T15:58:48.109Z,97547.38
2022-11-20T16:01:18.935Z,97542.25
2022-11-20T16:03:46.756Z,97543.25
2022-11-20T16:06:14.211Z,97548.09
2022-11-20T16:08:41.555Z,97543.94
2022-11-20T16:11:11.429Z,97537.09
2022-11-20T16:13:57.392Z,97542.81
2022-11-20T16:16:31.081Z,97543.59
2022-11-20T16:18:58.745Z,97541.19
2022-11-20T16:21:31.795Z,97549.88
2022-11-20T16:24:04.335Z,97540.50
2022-11-20T16:26:32.177Z,97536.06
2022-11-20T16:29:04.776Z,97540.03
2022-11-20T16:31:32.540Z,97535.53
2022-11-20T16:34:11.915Z,97533.31
2022-11-20T16:36:45.712Z,97530.41
2022-11-20T16:39:23.611Z,97532.63
2022-11-20T16:41:54.556Z,97532.97
2022-11-20T16:44:22.414Z,97529.16
2022-11-20T16:46:50.176Z,97525.31
2022-11-20T16:49:17.913Z,97523.28
2022-11-20T16:51:45.432Z,97518.44
2022-11-20T16:54:17.898Z,97526.03
2022-11-20T16:56:52.053Z,97526.59
2022-11-20T16:59:20.093Z,97520.69
2022-11-20T17:01:51.169Z,97517.28
2022-11-20T17:04:18.319Z,97527.38
2022-11-20T17:06:45.330Z,97514.25
2022-11-20T17:09:13.117Z,97509.72
2022-11-20T17:11:40.549Z,97509.38
2022-11-20T17:14:10.191Z,97506.13
2022-11-20T17:16:38.192Z,97497.03
2022-11-20T17:19:05.843Z,97495.97
2022-11-20T17:21:36.092Z,97488.50
2022-11-20T17:24:06.272Z,97487.91
2022-11-20T17:26:34.688Z,97488.97
2022-11-20T17:29:09.976Z,97491.84
2022-11-20T17:31:40.555Z,97498.81
2022-11-20T17:34:11.785Z,97492.34
2022-11-20T17:36:45.061Z,97487.41
2022-11-20T17:39:16.823Z,97491.19
2022-11-20T17:41:44.865Z,97491.22
2022-11-20T17:44:13.380Z,97493.06
2022-11-20T17:46:40.558Z,97486.63
2022-11-20T17:49:07.519Z,97477.69
2022-11-20T17:51:35.660Z,97479.69
2022-11-20T17:54:05.431Z,97482.19
2022-11-20T17:56:53.114Z,97466.84
2022-11-20T17:59:20.546Z,97461.09
2022-11-20T18:01:48.182Z,97467.81
2022-11-20T18:04:15.367Z,97458.25
2022-11-20T18:06:42.911Z,97446.59
2022-11-20T18:09:10.271Z,97448.69
2022-11-20T18:11:42.254Z,97442.81
2022-11-20T18:14:32.108Z,97448.31
2022-11-20T18:17:08.163Z,97442.09
2022-11-20T18:19:44.948Z,97446.72
2022-11-20T18:22:19.746Z,97439.09
2022-11-20T18:24:46.807Z,97444.13
2022-11-20T18:27:20.608Z,97435.91
2022-11-20T18:29:51.733Z,97437.47
2022-11-20T18:32:23.086Z,97431.59
2022-11-20T18:34:51.311Z,97432.91
2022-11-20T18:37:18.547Z,97430.78
2022-11-20T18:39:45.550Z,97435.81
2022-11-20T18:42:33.308Z,97432.13
2022-11-20T18:45:01.332Z,97421.47
2022-11-20T18:47:31.870Z,97428.84
2022-11-20T18:50:01.012Z,97420.31
2022-11-20T18:52:33.693Z,97411.72
2022-11-20T18:55:02.746Z,97406.69
2022-11-20T18:57:30.230Z,97415.09
2022-11-20T19:00:05.046Z,97413.06
2022-11-20T19:05:20.915Z,97426.22
2022-11-20T19:07:48.205Z,97420.50
2022-11-20T19:10:20.271Z,97439.13
2022-11-20T19:12:47.514Z,97438.78
2022-11-20T19:15:14.456Z,97447.47
2022-11-20T19:17:41.395Z,97419.75
2022-11-20T19:20:08.637Z,97442.50
2022-11-20T19:22:35.536Z,97439.63
2022-11-20T19:25:02.479Z,97438.78
2022-11-20T19:27:29.896Z,97436.81
2022-11-20T19:30:03.090Z,97426.72
2022-11-20T19:32:30.372Z,97429.38
2022-11-20T19:34:57.301Z,97422.78
2022-11-20T19:37:25.281Z,97423.34
2022-11-20T19:39:52.246Z,97435.53
2022-11-20T19:42:19.226Z,97417.84
2022-11-20T19:44:46.149Z,97433.13
2022-11-20T19:47:14.699Z,97427.94
2022-11-20T19:49:42.045Z,97431.44
2022-11-20T19:52:11.494Z,97400.41
2022-11-20T19:54:38.425Z,97394.06
2022-11-20T19:57:05.778Z,97388.88
2022-11-20T19:59:32.787Z,97384.34
2022-11-20T20:02:02.015Z,97388.53
2022-11-20T20:04:29.493Z,97379.16
2022-11-20T20:06:56.442Z,97383.22
2022-11-20T20:09:23.911Z,97376.72
2022-11-20T20:11:50.994Z,97369.91
2022-11-20T20:14:18.385Z,97386.50
2022-11-20T20:16:45.741Z,97387.97
2022-11-20T20:19:16.328Z,97366.00
2022-11-20T20:21:43.855Z,97385.34
2022-11-20T20:24:12.220Z,97374.47
2022-11-20T20:26:39.466Z,97371.38
2022-11-20T20:29:06.407Z,97384.47
2022-11-20T20:31:34.227Z,97373.50
2022-11-20T20:34:03.199Z,97373.09
2022-11-20T20:36:30.240Z,97381.06
2022-11-20T20:39:04.683Z,97379.16
2022-11-20T20:41:32.075Z,97372.19
2022-11-20T20:44:17.980Z,97363.28
2022-11-20T20:46:44.995Z,97383.91
2022-11-20T20:49:12.006Z,97379.47
2022-11-20T20:51:39.087Z,97364.53
2022-11-20T20:54:06.613Z,97374.97
2022-11-20T20:56:33.491Z,97381.09
2022-11-20T20:59:00.492Z,97374.56
2022-11-20T21:01:30.552Z,97377.47
2022-11-20T21:03:58.235Z,97384.97
2022-11-20T21:06:26.305Z,97376.34
2022-11-20T21:08:55.812Z,97365.03
2022-11-20T21:11:23.099Z,97377.69
2022-11-20T21:13:50.753Z,97374.75
2022-11-20T21:16:22.354Z,97368.25
2022-11-20T21:18:49.333Z,97375.31
2022-11-20T21:21:36.145Z,97375.53
2022-11-20T21:24:03.851Z,97361.84
2022-11-20T21:26:30.834Z,97375.69
2022-11-20T21:28:58.084Z,97369.63
2022-11-20T21:31:26.778Z,97382.00
2022-11-20T21:33:56.283Z,97379.00
2022-11-20T21:36:26.838Z,97370.19
2022-11-20T21:38:55.410Z,97384.06
2022-11-20T21:41:24.944Z,97380.31
2022-11-20T21:44:23.662Z,97371.47
2022-11-20T21:46:45.303Z,97367.97
2022-11-20T21:49:14.455Z,97370.25
2022-11-20T21:51:41.902Z,97353.66
2022-11-20T21:54:11.755Z,97363.78
2022-11-20T21:56:38.881Z,97370.84
2022-11-20T21:59:06.164Z,97370.06
2022-11-20T22:01:33.251Z,97370.72
2022-11-20T22:04:02.740Z,97386.47
2022-11-20T22:06:34.780Z,97383.56
2022-11-20T22:09:03.200Z,97381.59
2022-11-20T22:11:30.614Z,97383.13
2022-11-20T22:14:16.421Z,97383.34
2022-11-20T22:16:43.420Z,97389.38
2022-11-20T22:19:10.832Z,97380.66
2022-11-20T22:21:39.988Z,97384.66
2022-11-20T22:24:07.308Z,97383.06
2022-11-20T22:26:40.008Z,97380.59
2022-11-20T22:29:08.099Z,97385.31
2022-11-20T22:31:34.991Z,97391.63
2022-11-20T22:34:02.731Z,97392.72
2022-11-20T22:36:31.343Z,97394.84
2022-11-20T22:38:59.083Z,97387.50
2022-11-20T22:41:28.456Z,97404.66
2022-11-20T22:43:58.225Z,97407.00
2022-11-20T22:46:28.364Z,97398.50
2022-11-20T22:49:01.661Z,97393.41
2022-11-20T22:51:35.180Z,97395.66
2022-11-20T22:54:03.488Z,97404.03
2022-11-20T22:56:31.361Z,97407.06
2022-11-20T22:58:58.680Z,97410.34
2022-11-20T23:01:27.402Z,97398.16
2022-11-20T23:04:00.405Z,97405.81
2022-11-20T23:06:34.006Z,97403.97
2022-11-20T23:09:01.279Z,97398.91
2022-11-20T23:11:32.312Z,97398.31
2022-11-20T23:14:04.737Z,97402.81
2022-11-20T23:16:33.267Z,97410.38
2022-11-20T23:19:07.255Z,97412.81
2022-11-20T23:21:36.541Z,97406.56
2022-11-20T23:24:04.349Z,97415.13
2022-11-20T23:26:34.086Z,97412.25
2022-11-20T23:29:01.678Z,97410.75
2022-11-20T23:31:31.812Z,97416.59
2022-11-20T23:33:59.135Z,97406.22
2022-11-20T23:36:26.846Z,97417.56
2022-11-20T23:38:54.304Z,97414.00
2022-11-20T23:41:21.261Z,97420.56
2022-11-20T23:43:48.160Z,97411.53
2022-11-20T23:46:16.721Z,97414.31
2022-11-20T23:48:45.082Z,97412.06
2022-11-20T23:51:12.675Z,97407.81
2022-11-20T23:53:39.856Z,97405.78
2022-11-20T23:56:06.990Z,97417.91
2022-11-20T23:58:37.037Z,97407.75
